createdAt,value
2018-09-13T00:00:02.572Z,1999.90
2018-09-13T00:02:31.626Z,1999.90
2018-09-13T00:05:00.630Z,1999.90
2018-09-13T00:07:29.764Z,1999.90
2018-09-13T00:09:58.797Z,1999.90
2018-09-13T00:12:27.885Z,1999.90
2018-09-13T00:14:56.997Z,1999.90
2018-09-13T00:17:26.113Z,1999.90
2018-09-13T00:19:59.202Z,1999.90
2018-09-13T00:22:28.286Z,1999.90
2018-09-13T00:24:57.294Z,1999.90
2018-09-13T00:27:26.389Z,1999.90
2018-09-13T00:29:55.556Z,1999.90
2018-09-13T00:32:24.572Z,1999.90
2018-09-13T00:34:53.655Z,1999.90
2018-09-13T00:37:22.726Z,1999.90
2018-09-13T00:39:51.732Z,1999.90
2018-09-13T00:42:20.722Z,1999.90
2018-09-13T00:44:49.846Z,1999.90
2018-09-13T00:47:18.838Z,1999.90
2018-09-13T00:49:47.916Z,1999.90
2018-09-13T00:52:16.998Z,1999.90
2018-09-13T00:54:46.099Z,1999.90
2018-09-13T00:57:15.203Z,1999.90
2018-09-13T00:59:44.322Z,1999.90
2018-09-13T01:02:13.386Z,1999.90
2018-09-13T01:04:42.458Z,1999.90
2018-09-13T01:07:11.501Z,1999.90
2018-09-13T01:09:40.574Z,1999.90
2018-09-13T01:12:11.478Z,1999.90
2018-09-13T01:14:40.502Z,1999.90
2018-09-13T01:17:09.514Z,1999.90
2018-09-13T01:19:38.621Z,1999.90
2018-09-13T01:22:07.641Z,1999.90
2018-09-13T01:24:36.670Z,1999.90
2018-09-13T01:27:05.777Z,1999.90
2018-09-13T01:29:34.913Z,1999.90
2018-09-13T01:32:03.950Z,1999.90
2018-09-13T01:34:32.987Z,1999.90
2018-09-13T01:37:02.058Z,1999.90
2018-09-13T01:39:31.168Z,1999.90
2018-09-13T01:42:00.154Z,1999.90
2018-09-13T01:44:29.150Z,1999.90
2018-09-13T01:46:58.202Z,1999.90
2018-09-13T01:49:27.250Z,1999.90
2018-09-13T01:51:56.324Z,1999.90
2018-09-13T01:54:25.406Z,1999.90
2018-09-13T01:56:54.434Z,1999.90
2018-09-13T01:59:23.545Z,1999.90
2018-09-13T02:01:52.803Z,1999.90
2018-09-13T02:04:21.942Z,1999.90
2018-09-13T02:06:51.228Z,1999.90
2018-09-13T02:09:20.252Z,1999.90
2018-09-13T02:11:49.282Z,1999.90
2018-09-13T02:14:18.278Z,1999.90
2018-09-13T02:16:47.319Z,1999.90
2018-09-13T02:19:16.347Z,1999.90
2018-09-13T02:21:45.395Z,1999.90
2018-09-13T02:24:14.417Z,1999.90
2018-09-13T02:26:43.409Z,1999.90
2018-09-13T02:29:12.463Z,1999.90
2018-09-13T02:31:41.539Z,1999.90
2018-09-13T02:34:10.661Z,1999.90
2018-09-13T02:36:39.737Z,1999.90
2018-09-13T02:39:09.747Z,1999.90
2018-09-13T02:41:47.499Z,1999.90
2018-09-13T02:44:16.647Z,1999.90
2018-09-13T02:46:45.757Z,1999.90
2018-09-13T02:49:14.899Z,1999.90
2018-09-13T02:51:43.935Z,1999.90
2018-09-13T02:54:13.022Z,1999.90
2018-09-13T02:56:42.154Z,1999.90
2018-09-13T02:59:11.229Z,1999.90
2018-09-13T03:01:40.290Z,1999.90
2018-09-13T03:04:09.278Z,1999.90
2018-09-13T03:06:38.282Z,1999.90
2018-09-13T03:09:09.959Z,1999.90
2018-09-13T03:11:38.952Z,1999.90
2018-09-13T03:14:08.150Z,1999.90
2018-09-13T03:16:37.265Z,1999.90
2018-09-13T03:19:06.302Z,1999.90
2018-09-13T03:21:35.322Z,1999.90
2018-09-13T03:24:04.424Z,1999.90
2018-09-13T03:26:33.617Z,1999.90
2018-09-13T03:29:03.046Z,1999.90
2018-09-13T03:31:32.840Z,1999.90
2018-09-13T03:34:01.944Z,1999.90
2018-09-13T03:36:30.966Z,1999.90
2018-09-13T03:38:59.990Z,1999.90
2018-09-13T03:41:29.530Z,1999.90
2018-09-13T03:43:58.583Z,1999.90
2018-09-13T03:46:27.578Z,1999.90
2018-09-13T03:48:56.577Z,1999.90
2018-09-13T03:51:25.650Z,1999.90
2018-09-13T03:53:54.657Z,1999.90
2018-09-13T03:56:23.660Z,1999.90
2018-09-13T03:58:52.716Z,1999.90
2018-09-13T04:01:21.826Z,1999.90
2018-09-13T04:03:50.873Z,1999.90
2018-09-13T04:06:19.970Z,1999.90
2018-09-13T04:08:49.096Z,1999.90
2018-09-13T04:11:18.154Z,1999.90
2018-09-13T04:13:47.253Z,1999.90
2018-09-13T04:16:16.354Z,1999.90
2018-09-13T04:18:45.361Z,1999.90
2018-09-13T04:21:15.398Z,1999.90
2018-09-13T04:23:44.399Z,1999.90
2018-09-13T04:26:13.392Z,1999.90
2018-09-13T04:28:42.421Z,1999.90
2018-09-13T04:31:11.644Z,1999.90
2018-09-13T04:33:40.738Z,1999.90
2018-09-13T04:36:09.740Z,1999.90
2018-09-13T04:38:38.837Z,1999.90
2018-09-13T04:41:08.331Z,1999.90
2018-09-13T04:43:37.434Z,1999.90
2018-09-13T04:46:06.724Z,1999.90
2018-09-13T04:48:35.853Z,1999.90
2018-09-13T04:51:04.954Z,1999.90
2018-09-13T04:53:34.002Z,1999.90
2018-09-13T04:56:03.152Z,1999.90
2018-09-13T04:58:32.218Z,1999.90
2018-09-13T05:01:01.342Z,1999.90
2018-09-13T05:03:30.398Z,1999.90
2018-09-13T05:05:59.514Z,1999.90
2018-09-13T05:08:28.506Z,1999.90
2018-09-13T05:10:57.601Z,1999.90
2018-09-13T05:13:26.662Z,1999.90
2018-09-13T05:15:55.784Z,1999.90
2018-09-13T05:18:24.872Z,1999.90
2018-09-13T05:20:53.874Z,1999.90
2018-09-13T05:23:22.961Z,1999.90
2018-09-13T05:25:52.106Z,1999.90
2018-09-13T05:28:21.141Z,1999.90
2018-09-13T05:30:50.445Z,1999.90
2018-09-13T05:33:19.530Z,1999.90
2018-09-13T05:35:48.644Z,1999.90
2018-09-13T05:38:17.773Z,1999.90
2018-09-13T05:40:46.837Z,1999.90
2018-09-13T05:43:16.229Z,1999.90
2018-09-13T05:45:45.428Z,1999.90
2018-09-13T05:48:14.541Z,1999.90
2018-09-13T05:50:43.565Z,1999.90
2018-09-13T05:53:12.917Z,1999.90
2018-09-13T05:55:42.037Z,1999.90
2018-09-13T05:58:11.159Z,1999.90
2018-09-13T06:00:40.203Z,1999.90
2018-09-13T06:03:09.381Z,1999.90
2018-09-13T06:05:38.408Z,1999.90
2018-09-13T06:08:07.556Z,1999.90
2018-09-13T06:10:36.529Z,1999.90
2018-09-13T06:13:05.623Z,1999.90
2018-09-13T06:15:34.720Z,1999.90
2018-09-13T06:18:03.815Z,1999.90
2018-09-13T06:20:32.966Z,1999.90
2018-09-13T06:23:02.120Z,1999.90
2018-09-13T06:25:31.176Z,1999.90
2018-09-13T06:28:00.866Z,1999.90
2018-09-13T06:30:30.002Z,1999.90
2018-09-13T06:32:59.084Z,1999.90
2018-09-13T06:35:28.107Z,1999.90
2018-09-13T06:37:57.121Z,1999.90
2018-09-13T06:40:26.243Z,1999.90
2018-09-13T06:42:55.444Z,1999.90
2018-09-13T06:45:24.555Z,1999.90
2018-09-13T06:47:53.554Z,1999.90
2018-09-13T06:50:23.677Z,1999.90
2018-09-13T06:52:52.769Z,1999.90
2018-09-13T06:55:21.819Z,1999.90
2018-09-13T06:57:50.795Z,1999.90
2018-09-13T07:00:19.829Z,1999.90
2018-09-13T07:02:48.933Z,1999.90
2018-09-13T07:05:17.957Z,1999.90
2018-09-13T07:07:46.949Z,1999.90
2018-09-13T07:10:16.023Z,1999.90
2018-09-13T07:12:45.131Z,1999.90
2018-09-13T07:15:14.176Z,1999.90
2018-09-13T07:17:43.666Z,1999.90
2018-09-13T07:20:12.718Z,1999.90
2018-09-13T07:22:41.819Z,1999.90
2018-09-13T07:25:10.800Z,1999.90
2018-09-13T07:27:39.858Z,1999.90
2018-09-13T07:30:08.970Z,1999.90
2018-09-13T07:32:38.094Z,1999.90
2018-09-13T07:35:07.554Z,1999.90
2018-09-13T07:37:36.666Z,1999.90
2018-09-13T07:40:06.170Z,1999.90
2018-09-13T07:42:35.354Z,1999.90
2018-09-13T07:45:04.624Z,1999.90
2018-09-13T07:47:33.646Z,1999.90
2018-09-13T07:50:02.707Z,1999.90
2018-09-13T07:52:31.785Z,1999.90
2018-09-13T07:55:00.869Z,1999.90
2018-09-13T07:57:30.000Z,1999.90
2018-09-13T07:59:59.835Z,1999.90
2018-09-13T08:02:29.022Z,1999.90
2018-09-13T08:04:58.086Z,1999.90
2018-09-13T08:07:27.030Z,1999.90
2018-09-13T08:09:56.035Z,1999.90
2018-09-13T08:12:25.085Z,1999.90
2018-09-13T08:14:54.108Z,1999.90
2018-09-13T08:17:23.141Z,1999.90
2018-09-13T08:19:52.297Z,1999.90
2018-09-13T08:22:21.509Z,1999.90
2018-09-13T08:24:50.710Z,1999.90
2018-09-13T08:27:19.821Z,1999.90
2018-09-13T08:29:48.901Z,1999.90
2018-09-13T08:32:17.916Z,1999.90
2018-09-13T08:34:47.032Z,1999.90
2018-09-13T08:37:16.097Z,1999.90
2018-09-13T08:39:45.196Z,1999.90
2018-09-13T08:42:14.281Z,1999.90
2018-09-13T08:44:43.409Z,1999.90
2018-09-13T08:47:12.446Z,1999.90
2018-09-13T08:49:41.533Z,1999.90
2018-09-13T08:52:10.653Z,1999.90
2018-09-13T08:56:04.072Z,1999.90
2018-09-13T08:58:33.105Z,1999.90
2018-09-13T09:01:02.134Z,1999.90
2018-09-13T09:03:31.209Z,1999.90
2018-09-13T09:06:00.315Z,1999.90
2018-09-13T09:08:29.401Z,1999.90
2018-09-13T09:10:58.497Z,1999.90
2018-09-13T09:13:28.632Z,1999.90
2018-09-13T09:15:57.628Z,1999.90
2018-09-13T09:18:26.715Z,1999.90
2018-09-13T09:20:55.824Z,1999.90
2018-09-13T09:23:24.906Z,1999.90
2018-09-13T09:25:53.980Z,1999.90
2018-09-13T09:28:25.073Z,1999.90
2018-09-13T09:30:54.113Z,1999.90
2018-09-13T09:33:23.132Z,1999.90
2018-09-13T09:35:52.207Z,1999.90
2018-09-13T09:38:21.178Z,1999.90
2018-09-13T09:40:50.205Z,1999.90
2018-09-13T09:43:19.325Z,1999.90
2018-09-13T09:45:48.406Z,1999.90
2018-09-13T09:48:17.418Z,1999.90
2018-09-13T09:50:46.528Z,1999.90
2018-09-13T09:53:15.574Z,1999.90
2018-09-13T09:55:44.689Z,1999.90
2018-09-13T09:58:13.748Z,1999.90
2018-09-13T10:00:48.336Z,1999.90
2018-09-13T10:03:17.384Z,1999.90
2018-09-13T10:05:46.498Z,1999.90
2018-09-13T10:08:15.578Z,1999.90
2018-09-13T10:10:44.630Z,1999.90
2018-09-13T10:13:13.673Z,1999.90
2018-09-13T10:15:48.111Z,1999.90
2018-09-13T10:18:22.654Z,1999.90
2018-09-13T10:20:57.148Z,1999.90
2018-09-13T10:23:32.767Z,1999.90
2018-09-13T10:26:07.156Z,1999.90
2018-09-13T10:28:41.656Z,1999.90
2018-09-13T10:31:16.042Z,1999.90
2018-09-13T10:33:50.552Z,1999.90
2018-09-13T10:36:24.964Z,1999.90
2018-09-13T10:38:59.394Z,1999.90
2018-09-13T10:44:19.602Z,1999.90
2018-09-13T10:46:52.947Z,1999.90
2018-09-13T10:49:27.452Z,1999.90
2018-09-13T10:52:02.032Z,1999.90
2018-09-13T10:54:38.458Z,1999.90
2018-09-13T10:57:13.150Z,1999.90
2018-09-13T10:59:42.653Z,1999.90
2018-09-13T11:02:11.994Z,1999.90
2018-09-13T11:04:41.114Z,1999.90
2018-09-13T11:07:11.164Z,1999.90
2018-09-13T11:09:43.784Z,1999.90
2018-09-13T11:12:12.862Z,1999.90
2018-09-13T11:14:56.363Z,1999.90
2018-09-13T11:17:26.210Z,1999.90
2018-09-13T11:19:55.482Z,1999.90
2018-09-13T11:22:24.621Z,1999.90
2018-09-13T11:24:53.713Z,1999.90
2018-09-13T11:27:22.789Z,1999.90
2018-09-13T11:29:51.893Z,1999.90
2018-09-13T11:32:21.003Z,1999.90
2018-09-13T11:34:50.077Z,1999.90
2018-09-13T11:37:19.184Z,1999.90
2018-09-13T11:39:48.223Z,1999.90
2018-09-13T11:42:17.230Z,1999.90
2018-09-13T11:44:46.307Z,1999.90
2018-09-13T11:47:15.365Z,1999.90
2018-09-13T11:49:44.533Z,1999.90
2018-09-13T11:52:13.679Z,1999.90
2018-09-13T11:54:42.758Z,1999.90
2018-09-13T11:57:11.864Z,1999.90
2018-09-13T11:59:42.039Z,1999.90
2018-09-13T12:02:11.083Z,1999.90
2018-09-13T12:04:40.105Z,1999.90
2018-09-13T12:07:09.203Z,1999.90
2018-09-13T12:09:41.296Z,1999.90
2018-09-13T12:12:10.383Z,1999.90
2018-09-13T12:14:39.454Z,1999.90
2018-09-13T12:17:08.601Z,1999.90
2018-09-13T12:19:37.777Z,1999.90
2018-09-13T12:22:06.869Z,1999.90
2018-09-13T12:24:36.005Z,1999.90
2018-09-13T12:27:05.135Z,1999.90
2018-09-13T12:29:34.155Z,1999.90
2018-09-13T12:32:03.247Z,1999.90
2018-09-13T12:34:32.366Z,1999.90
2018-09-13T12:37:01.389Z,1999.90
2018-09-13T12:39:30.368Z,1999.90
2018-09-13T12:41:59.413Z,1999.90
2018-09-13T12:44:28.556Z,1999.90
2018-09-13T12:46:57.649Z,1999.90
2018-09-13T12:49:29.787Z,1999.90
2018-09-13T12:51:58.890Z,1999.90
2018-09-13T12:54:27.986Z,1999.90
2018-09-13T12:56:57.154Z,1999.90
2018-09-13T12:59:26.171Z,1999.90
2018-09-13T13:01:55.259Z,1999.90
2018-09-13T13:04:24.376Z,1999.90
2018-09-13T13:06:53.469Z,1999.90
2018-09-13T13:09:22.528Z,1999.90
2018-09-13T13:11:51.634Z,1999.90
2018-09-13T13:14:20.743Z,1999.90
2018-09-13T13:16:49.824Z,1999.90
2018-09-13T13:19:18.841Z,1999.90
2018-09-13T13:21:47.916Z,1999.90
2018-09-13T13:24:17.144Z,1999.90
2018-09-13T13:26:46.275Z,1999.90
2018-09-13T13:29:15.314Z,1999.90
2018-09-13T13:31:44.413Z,1999.90
2018-09-13T13:34:13.569Z,1999.90
2018-09-13T13:36:42.636Z,1999.90
2018-09-13T13:39:11.788Z,1999.90
2018-09-13T13:41:40.897Z,1999.90
2018-09-13T13:44:09.893Z,1999.90
2018-09-13T13:46:38.946Z,1999.90
2018-09-13T13:49:08.260Z,1999.90
2018-09-13T13:51:37.370Z,1999.90
2018-09-13T13:54:06.526Z,1999.90
2018-09-13T13:56:35.578Z,1999.90
2018-09-13T14:01:14.694Z,1999.90
2018-09-13T14:03:43.468Z,1999.90
2018-09-13T14:06:12.405Z,1999.90
2018-09-13T14:08:41.933Z,1999.90
2018-09-13T14:15:32.733Z,8.90
2018-09-13T14:18:01.870Z,8.53
2018-09-13T14:20:31.072Z,6.33
2018-09-13T14:23:00.022Z,6.60
2018-09-13T14:25:29.148Z,9.43
2018-09-13T14:27:58.858Z,7.33
2018-09-13T14:30:27.936Z,7.83
2018-09-13T14:32:57.090Z,7.50
2018-09-13T14:35:26.119Z,6.37
2018-09-13T14:37:55.243Z,7.90
2018-09-13T14:40:24.364Z,5.53
2018-09-13T14:42:53.366Z,6.47
2018-09-13T14:45:22.384Z,8.87
2018-09-13T14:47:51.539Z,6.40
2018-09-13T14:50:20.566Z,6.97
2018-09-13T14:52:49.576Z,7.87
2018-09-13T14:55:18.776Z,6.43
2018-09-13T14:57:47.862Z,11.37
2018-09-13T15:00:16.966Z,8.87
2018-09-13T15:02:46.068Z,7.93
2018-09-13T15:05:15.137Z,8.17
2018-09-13T15:07:44.350Z,6.13
2018-09-13T15:10:13.475Z,8.53
2018-09-13T15:12:42.861Z,8.30
2018-09-13T15:15:12.141Z,6.63
2018-09-13T15:17:41.284Z,7.07
2018-09-13T15:20:10.347Z,7.90
2018-09-13T15:22:39.453Z,7.00
2018-09-13T15:25:08.532Z,7.37
2018-09-13T15:27:37.620Z,7.50
2018-09-13T15:30:07.085Z,7.40
2018-09-13T15:32:36.105Z,8.77
2018-09-13T15:35:05.227Z,4.50
2018-09-13T15:37:34.337Z,7.33
2018-09-13T15:40:03.522Z,6.80
2018-09-13T15:42:32.599Z,9.80
2018-09-13T15:45:01.609Z,6.60
2018-09-13T15:47:30.805Z,6.77
2018-09-13T15:49:59.901Z,6.23
2018-09-13T15:52:29.169Z,7.37
2018-09-13T15:54:58.199Z,8.70
2018-09-13T15:57:27.276Z,8.13
2018-09-13T15:59:56.393Z,7.13
2018-09-13T16:02:25.529Z,6.40
2018-09-13T16:04:54.563Z,8.97
2018-09-13T16:07:23.713Z,6.90
2018-09-13T16:09:52.843Z,7.67
2018-09-13T16:12:21.987Z,6.27
2018-09-13T16:14:50.927Z,8.73
2018-09-13T16:17:20.057Z,8.30
2018-09-13T16:19:49.097Z,7.37
2018-09-13T16:22:18.455Z,9.23
2018-09-13T16:24:50.432Z,7.30
2018-09-13T16:27:19.621Z,6.03
2018-09-13T16:29:48.740Z,5.03
2018-09-13T16:32:20.308Z,8.13
2018-09-13T16:34:50.155Z,11.67
2018-09-13T16:37:26.262Z,5.97
2018-09-13T16:40:00.554Z,6.13
2018-09-13T16:42:42.446Z,6.73
2018-09-13T16:45:11.890Z,11.23
2018-09-13T16:47:46.311Z,8.17
2018-09-13T16:50:15.474Z,6.70
2018-09-13T16:52:44.584Z,10.40
2018-09-13T16:55:13.802Z,6.80
2018-09-13T16:57:42.886Z,6.13
2018-09-13T17:00:11.997Z,5.53
2018-09-13T17:02:41.284Z,5.77
2018-09-13T17:05:10.325Z,7.67
2018-09-13T17:07:39.511Z,6.33
2018-09-13T17:10:08.739Z,6.67
2018-09-13T17:12:37.830Z,8.17
2018-09-13T17:15:06.842Z,9.87
2018-09-13T17:17:35.917Z,8.43
2018-09-13T17:20:05.152Z,9.40
2018-09-13T17:22:34.233Z,9.37
2018-09-13T17:25:03.215Z,6.30
2018-09-13T17:27:32.293Z,8.97
2018-09-13T17:30:01.415Z,6.03
2018-09-13T17:32:30.473Z,10.40
2018-09-13T17:34:59.487Z,6.73
2018-09-13T17:37:28.697Z,8.67
2018-09-13T17:39:57.704Z,6.67
2018-09-13T17:42:26.683Z,5.40
2018-09-13T17:44:55.697Z,6.53
2018-09-13T17:47:24.741Z,8.53
2018-09-13T17:49:53.765Z,6.83
2018-09-13T17:52:22.740Z,4.97
2018-09-13T17:54:51.874Z,9.30
2018-09-13T17:57:20.889Z,6.70
2018-09-13T17:59:49.931Z,8.53
2018-09-13T18:02:18.901Z,8.30
2018-09-13T18:04:47.961Z,6.43
2018-09-13T18:07:16.973Z,6.97
2018-09-13T18:09:46.029Z,9.40
2018-09-13T18:12:15.011Z,8.03
2018-09-13T18:14:43.991Z,7.53
2018-09-13T18:17:12.999Z,8.87
2018-09-13T18:19:42.021Z,6.40
2018-09-13T18:22:11.077Z,7.70
2018-09-13T18:24:40.173Z,8.37
2018-09-13T18:27:09.309Z,7.50
2018-09-13T18:29:38.373Z,8.20
2018-09-13T18:32:07.550Z,6.63
2018-09-13T18:34:36.768Z,7.80
2018-09-13T18:37:05.751Z,8.80
2018-09-13T18:39:34.870Z,9.87
2018-09-13T18:42:03.856Z,10.30
2018-09-13T18:44:32.829Z,8.37
2018-09-13T18:47:01.981Z,11.10
2018-09-13T18:49:31.097Z,10.53
2018-09-13T18:52:00.614Z,9.53
2018-09-13T18:54:29.672Z,11.13
2018-09-13T18:56:58.691Z,8.07
2018-09-13T18:59:27.746Z,8.07
2018-09-13T19:01:56.922Z,8.67
2018-09-13T19:04:25.984Z,8.93
2018-09-13T19:06:55.137Z,9.73
2018-09-13T19:09:24.233Z,11.20
2018-09-13T19:11:53.269Z,7.47
2018-09-13T19:14:22.583Z,9.57
2018-09-13T19:16:51.621Z,8.40
2018-09-13T19:19:20.681Z,7.20
2018-09-13T19:21:49.964Z,9.90
2018-09-13T19:24:18.921Z,9.20
2018-09-13T19:26:47.951Z,7.13
2018-09-13T19:29:16.973Z,9.13
2018-09-13T19:31:45.981Z,13.43
2018-09-13T19:34:15.025Z,9.23
2018-09-13T19:36:44.101Z,10.23
2018-09-13T19:39:13.890Z,10.73
2018-09-13T19:41:43.372Z,15.70
2018-09-13T19:44:12.502Z,7.37
2018-09-13T19:46:41.546Z,7.87
2018-09-13T19:49:10.762Z,9.83
2018-09-13T19:51:39.803Z,11.70
2018-09-13T19:54:08.761Z,11.57
2018-09-13T19:56:38.013Z,9.20
2018-09-13T19:59:07.244Z,9.53
2018-09-13T20:01:36.389Z,11.57
2018-09-13T20:04:05.393Z,16.37
2018-09-13T20:06:34.570Z,9.77
2018-09-13T20:09:04.589Z,11.00
2018-09-13T20:11:33.701Z,8.20
2018-09-13T20:14:02.793Z,8.30
2018-09-13T20:16:31.756Z,11.73
2018-09-13T20:19:00.831Z,12.03
2018-09-13T20:21:30.113Z,10.53
2018-09-13T20:23:59.179Z,12.80
2018-09-13T20:26:28.223Z,13.93
2018-09-13T20:28:57.439Z,11.97
2018-09-13T20:31:26.499Z,13.43
2018-09-13T20:33:55.578Z,13.50
2018-09-13T20:36:24.555Z,10.83
2018-09-13T20:38:53.644Z,9.30
2018-09-13T20:41:22.694Z,12.53
2018-09-13T20:43:51.970Z,9.90
2018-09-13T20:46:20.941Z,11.67
2018-09-13T20:48:49.985Z,10.13
2018-09-13T20:51:19.176Z,13.47
2018-09-13T20:53:48.164Z,12.17
2018-09-13T20:56:19.182Z,11.07
2018-09-13T20:58:49.939Z,13.53
2018-09-13T21:01:19.058Z,11.53
2018-09-13T21:03:48.410Z,8.70
2018-09-13T21:06:17.400Z,13.47
2018-09-13T21:08:46.386Z,13.13
2018-09-13T21:11:15.393Z,9.20
2018-09-13T21:13:44.382Z,12.87
2018-09-13T21:16:13.404Z,8.93
2018-09-13T21:18:42.366Z,9.53
2018-09-13T21:21:11.398Z,12.43
2018-09-13T21:23:40.577Z,15.70
2018-09-13T21:26:09.690Z,13.10
2018-09-13T21:28:38.815Z,8.90
2018-09-13T21:31:07.977Z,10.57
2018-09-13T21:33:37.038Z,16.83
2018-09-13T21:36:06.050Z,13.63
2018-09-13T21:38:35.186Z,12.70
2018-09-13T21:41:04.199Z,13.43
2018-09-13T21:43:33.234Z,18.53
2018-09-13T21:46:02.215Z,11.73
2018-09-13T21:48:31.245Z,15.00
2018-09-13T21:51:00.425Z,13.10
2018-09-13T21:53:29.538Z,16.47
2018-09-13T21:55:58.590Z,15.93
2018-09-13T21:58:27.601Z,14.40
2018-09-13T22:00:56.816Z,15.50
2018-09-13T22:03:25.894Z,14.83
2018-09-13T22:05:55.010Z,14.67
2018-09-13T22:08:24.071Z,14.20
2018-09-13T22:10:53.137Z,9.50
2018-09-13T22:13:22.311Z,13.13
2018-09-13T22:15:51.343Z,11.93
2018-09-13T22:18:20.385Z,17.70
2018-09-13T22:20:49.421Z,16.70
2018-09-13T22:23:18.433Z,13.80
2018-09-13T22:25:47.413Z,13.17
2018-09-13T22:28:16.424Z,11.60
2018-09-13T22:30:45.441Z,10.87
2018-09-13T22:33:14.547Z,14.30
2018-09-13T22:35:43.513Z,10.33
2018-09-13T22:38:12.557Z,11.57
2018-09-13T22:40:41.633Z,16.83
2018-09-13T22:43:10.695Z,11.00
2018-09-13T22:45:39.678Z,15.87
2018-09-13T22:48:08.685Z,18.57
2018-09-13T22:50:37.725Z,17.63
2018-09-13T22:53:06.855Z,12.43
2018-09-13T22:55:35.859Z,14.57
2018-09-13T22:58:04.854Z,14.13
2018-09-13T23:00:33.938Z,16.93
2018-09-13T23:03:02.941Z,14.20
2018-09-13T23:05:32.010Z,18.23
2018-09-13T23:08:01.030Z,13.00
2018-09-13T23:10:30.057Z,11.07
2018-09-13T23:12:59.157Z,14.87
2018-09-13T23:15:28.211Z,15.53
2018-09-13T23:17:57.242Z,11.73
2018-09-13T23:20:26.342Z,13.63
2018-09-13T23:22:55.481Z,11.23
2018-09-13T23:25:24.526Z,13.10
2018-09-13T23:27:53.593Z,13.27
2018-09-13T23:30:22.615Z,15.43
2018-09-13T23:32:51.640Z,12.87
2018-09-13T23:35:20.607Z,16.00
2018-09-13T23:37:49.708Z,16.00
2018-09-13T23:40:18.913Z,20.50
2018-09-13T23:42:47.888Z,19.43
2018-09-13T23:45:16.957Z,18.83
2018-09-13T23:47:46.146Z,18.37
2018-09-13T23:50:15.380Z,17.90
2018-09-13T23:52:44.411Z,17.00
2018-09-13T23:55:13.441Z,19.70
2018-09-13T23:57:42.426Z,20.10
